createdAt,value
2022-12-17T00:00:41.162Z,93.43
2022-12-17T00:04:02.889Z,93.50
2022-12-17T00:07:24.592Z,93.22
2022-12-17T00:10:46.526Z,93.32
2022-12-17T00:14:07.744Z,93.20
2022-12-17T00:17:29.638Z,93.33
2022-12-17T00:20:50.766Z,93.32
2022-12-17T00:24:14.672Z,93.31
2022-12-17T00:27:39.272Z,93.37
2022-12-17T00:31:01.284Z,93.14
2022-12-17T00:34:25.255Z,93.05
2022-12-17T00:37:48.612Z,93.15
2022-12-17T00:41:11.446Z,93.30
2022-12-17T00:44:33.429Z,93.44
2022-12-17T00:47:54.688Z,93.17
2022-12-17T00:51:38.403Z,93.09
2022-12-17T00:54:59.959Z,93.17
2022-12-17T00:58:38.464Z,93.22
2022-12-17T01:02:00.119Z,93.20
2022-12-17T01:05:22.506Z,93.53
2022-12-17T01:08:43.754Z,93.28
2022-12-17T01:12:05.571Z,93.54
2022-12-17T01:15:27.223Z,93.39
2022-12-17T01:18:49.040Z,93.51
2022-12-17T01:22:10.293Z,93.54
2022-12-17T01:25:32.891Z,93.62
2022-12-17T01:28:54.047Z,93.39
2022-12-17T01:32:15.778Z,93.58
2022-12-17T01:35:38.217Z,93.51
2022-12-17T01:39:00.544Z,93.18
2022-12-17T01:42:21.835Z,92.89
2022-12-17T01:45:47.517Z,92.71
2022-12-17T01:49:12.863Z,92.51
2022-12-17T01:52:36.315Z,92.48
2022-12-17T01:55:57.582Z,92.37
2022-12-17T01:59:19.607Z,92.47
2022-12-17T02:02:41.451Z,91.99
2022-12-17T02:06:34.460Z,92.27
2022-12-17T02:10:17.980Z,92.33
2022-12-17T02:13:57.746Z,91.73
2022-12-17T02:17:24.927Z,91.16
2022-12-17T02:20:57.246Z,91.41
2022-12-17T02:24:46.609Z,91.17
2022-12-17T02:28:11.475Z,90.69
2022-12-17T02:31:35.767Z,90.75
2022-12-17T02:35:07.793Z,90.45
2022-12-17T02:38:46.843Z,89.86
2022-12-17T02:42:13.074Z,89.90
2022-12-17T02:45:36.157Z,89.61
2022-12-17T02:48:58.036Z,89.31
2022-12-17T02:52:19.585Z,88.93
2022-12-17T02:55:41.261Z,88.69
2022-12-17T02:59:03.579Z,88.60
2022-12-17T03:02:27.157Z,88.43
2022-12-17T03:05:48.529Z,88.42
2022-12-17T03:09:10.413Z,88.37
2022-12-17T03:12:31.681Z,88.07
2022-12-17T03:15:53.517Z,88.13
2022-12-17T03:19:15.844Z,87.98
2022-12-17T03:22:37.671Z,87.72
2022-12-17T03:25:58.887Z,87.80
2022-12-17T03:29:20.594Z,87.80
2022-12-17T03:32:41.824Z,87.94
2022-12-17T03:36:03.507Z,87.81
2022-12-17T03:39:24.537Z,87.97
2022-12-17T03:42:48.894Z,87.97
2022-12-17T03:46:13.893Z,87.51
2022-12-17T03:49:35.266Z,87.14
2022-12-17T03:52:56.459Z,86.37
2022-12-17T03:56:18.244Z,86.72
2022-12-17T03:59:39.509Z,86.46
2022-12-17T04:03:01.390Z,86.07
2022-12-17T04:06:23.145Z,86.23
2022-12-17T04:09:45.415Z,85.98
2022-12-17T04:13:07.839Z,86.00
2022-12-17T04:16:28.951Z,86.32
2022-12-17T04:19:50.629Z,86.14
2022-12-17T04:23:12.040Z,86.11
2022-12-17T04:26:33.890Z,85.92
2022-12-17T04:29:54.919Z,86.10
2022-12-17T04:33:16.731Z,85.52
2022-12-17T04:36:37.806Z,85.75
2022-12-17T04:40:00.681Z,85.76
2022-12-17T04:43:31.119Z,85.50
2022-12-17T04:46:53.593Z,85.44
2022-12-17T04:50:25.379Z,85.83
2022-12-17T04:53:48.608Z,85.80
2022-12-17T04:57:09.864Z,85.31
2022-12-17T05:00:32.309Z,85.61
2022-12-17T05:03:53.844Z,85.24
2022-12-17T05:07:15.491Z,85.04
2022-12-17T05:10:36.632Z,85.01
2022-12-17T05:13:58.386Z,85.19
2022-12-17T05:17:20.052Z,85.01
2022-12-17T05:20:41.864Z,84.74
2022-12-17T05:24:05.385Z,84.52
2022-12-17T05:27:27.454Z,84.50
2022-12-17T05:30:48.770Z,84.28
2022-12-17T05:34:18.050Z,84.37
2022-12-17T05:37:40.552Z,84.57
2022-12-17T05:41:01.903Z,84.58
2022-12-17T05:44:23.049Z,84.54
2022-12-17T05:47:44.891Z,84.33
2022-12-17T05:51:09.589Z,84.31
2022-12-17T05:54:31.807Z,84.57
2022-12-17T05:57:56.410Z,84.84
2022-12-17T06:01:20.761Z,84.79
2022-12-17T06:04:42.538Z,84.93
2022-12-17T06:08:03.729Z,84.58
2022-12-17T06:11:25.443Z,84.57
2022-12-17T06:14:46.708Z,84.25
2022-12-17T06:18:16.919Z,84.33
2022-12-17T06:21:38.727Z,84.11
2022-12-17T06:25:00.368Z,83.86
2022-12-17T06:28:23.903Z,84.40
2022-12-17T06:31:45.995Z,84.36
2022-12-17T06:35:07.105Z,84.32
2022-12-17T06:38:29.040Z,84.20
2022-12-17T06:41:51.488Z,84.24
2022-12-17T06:45:14.170Z,84.02
2022-12-17T06:48:35.488Z,84.22
2022-12-17T06:51:57.394Z,84.19
2022-12-17T06:55:18.666Z,84.33
2022-12-17T06:58:40.509Z,84.40
2022-12-17T07:02:01.880Z,84.34
2022-12-17T07:05:23.812Z,84.60
2022-12-17T07:08:45.042Z,84.57
2022-12-17T07:12:06.925Z,84.48
2022-12-17T07:15:28.690Z,84.43
2022-12-17T07:18:51.588Z,84.44
2022-12-17T07:22:12.798Z,84.40
2022-12-17T07:25:40.461Z,84.35
2022-12-17T07:29:04.317Z,84.43
2022-12-17T07:32:26.169Z,84.29
2022-12-17T07:35:47.249Z,84.00
2022-12-17T07:39:08.976Z,84.05
2022-12-17T07:42:31.143Z,84.43
2022-12-17T07:45:52.725Z,84.26
2022-12-17T07:49:14.170Z,84.26
2022-12-17T07:52:35.718Z,83.94
2022-12-17T07:55:56.847Z,83.17
2022-12-17T07:59:18.423Z,82.91
2022-12-17T08:02:39.735Z,83.07
2022-12-17T08:06:01.534Z,82.83
2022-12-17T08:09:24.375Z,82.72
2022-12-17T08:12:46.166Z,82.12
2022-12-17T08:16:09.936Z,82.25
2022-12-17T08:19:32.370Z,81.96
2022-12-17T08:22:37.682Z,81.97
2022-12-17T08:26:01.788Z,81.91
2022-12-17T08:29:23.099Z,81.07
2022-12-17T08:32:45.941Z,81.01
2022-12-17T08:36:15.273Z,80.63
2022-12-17T08:39:36.967Z,79.07
2022-12-17T08:42:58.987Z,78.09
2022-12-17T08:46:22.938Z,77.70
2022-12-17T08:49:44.318Z,77.94
2022-12-17T08:53:07.811Z,77.08
2022-12-17T08:56:29.140Z,75.01
2022-12-17T08:59:51.004Z,73.61
2022-12-17T09:03:22.133Z,74.36
2022-12-17T09:06:43.760Z,73.09
2022-12-17T09:10:05.026Z,75.17
2022-12-17T09:13:26.729Z,73.82
2022-12-17T09:16:48.200Z,73.41
2022-12-17T09:20:10.593Z,73.14
2022-12-17T09:23:37.340Z,71.84
2022-12-17T09:26:59.396Z,69.10
2022-12-17T09:30:20.751Z,67.97
2022-12-17T09:33:42.661Z,67.04
2022-12-17T09:37:05.322Z,66.50
2022-12-17T09:40:35.187Z,68.13
2022-12-17T09:44:18.936Z,65.82
2022-12-17T09:47:43.330Z,68.47
2022-12-17T09:51:09.108Z,69.85
2022-12-17T09:54:56.344Z,69.94
2022-12-17T09:58:21.581Z,69.83
2022-12-17T10:01:46.346Z,67.45
2022-12-17T10:05:08.455Z,65.70
2022-12-17T10:08:37.663Z,63.59
2022-12-17T10:12:03.733Z,62.18
2022-12-17T10:15:27.667Z,64.24
2022-12-17T10:18:50.511Z,62.95
2022-12-17T10:22:11.756Z,62.02
2022-12-17T10:25:37.335Z,65.61
2022-12-17T10:28:58.527Z,69.18
2022-12-17T10:32:38.390Z,71.23
2022-12-17T10:36:01.188Z,72.05
2022-12-17T10:39:25.522Z,72.77
2022-12-17T10:42:49.204Z,71.41
2022-12-17T10:46:16.157Z,71.43
2022-12-17T10:49:40.987Z,71.82
2022-12-17T10:53:05.021Z,72.29
2022-12-17T10:56:38.477Z,73.09
2022-12-17T11:00:00.360Z,72.95
2022-12-17T11:03:23.188Z,73.67
2022-12-17T11:06:51.997Z,73.96
2022-12-17T11:10:18.922Z,74.13
2022-12-17T11:13:59.239Z,74.00
2022-12-17T11:17:24.079Z,73.11
2022-12-17T11:21:03.444Z,73.90
2022-12-17T11:24:36.259Z,73.91
2022-12-17T11:28:04.909Z,74.22
2022-12-17T11:31:50.567Z,74.34
2022-12-17T11:35:48.309Z,74.13
2022-12-17T11:39:22.627Z,73.82
2022-12-17T11:42:55.766Z,73.26
2022-12-17T11:46:43.628Z,73.45
2022-12-17T11:50:15.641Z,73.41
2022-12-17T11:54:19.418Z,72.37
2022-12-17T11:57:48.644Z,72.64
2022-12-17T12:01:41.217Z,72.88
2022-12-17T12:05:21.496Z,73.27
2022-12-17T12:08:47.841Z,73.72
2022-12-17T12:12:28.066Z,73.39
2022-12-17T12:16:07.770Z,73.13
2022-12-17T12:19:54.123Z,72.95
2022-12-17T12:23:29.439Z,73.20
2022-12-17T12:27:09.181Z,73.94
2022-12-17T12:30:30.435Z,74.20
2022-12-17T12:34:23.447Z,74.60
2022-12-17T12:37:44.985Z,75.27
2022-12-17T12:41:25.116Z,74.99
2022-12-17T12:45:03.432Z,75.19
2022-12-17T12:48:55.715Z,74.78
2022-12-17T12:52:18.905Z,73.53
2022-12-17T12:55:41.727Z,73.36
2022-12-17T12:59:05.483Z,73.75
2022-12-17T13:02:39.296Z,73.87
2022-12-17T13:05:45.154Z,73.90
2022-12-17T13:08:50.641Z,74.12
2022-12-17T13:12:02.562Z,73.80
2022-12-17T13:15:05.760Z,73.82
2022-12-17T13:18:29.340Z,74.06
2022-12-17T13:21:32.562Z,74.94
2022-12-17T13:24:35.477Z,75.04
2022-12-17T13:27:40.589Z,74.39
2022-12-17T13:30:43.495Z,74.24
2022-12-17T13:34:21.359Z,74.12
2022-12-17T13:37:39.298Z,74.21
2022-12-17T13:40:54.942Z,74.10
2022-12-17T13:44:02.472Z,74.42
2022-12-17T13:47:05.790Z,74.74
2022-12-17T13:50:36.128Z,75.30
2022-12-17T13:53:39.583Z,75.43
2022-12-17T13:56:44.124Z,75.85
2022-12-17T14:00:06.375Z,75.92
2022-12-17T14:03:43.113Z,76.18
2022-12-17T14:06:48.952Z,76.67
2022-12-17T14:09:52.679Z,76.82
2022-12-17T14:13:10.788Z,77.31
2022-12-17T14:16:21.490Z,76.93
2022-12-17T14:19:27.352Z,77.29
2022-12-17T14:22:51.050Z,77.45
2022-12-17T14:25:55.308Z,77.44
2022-12-17T14:28:58.106Z,77.58
2022-12-17T14:32:03.497Z,77.69
2022-12-17T14:35:28.729Z,77.87
2022-12-17T14:38:38.307Z,78.12
2022-12-17T14:42:03.057Z,78.31
2022-12-17T14:45:22.508Z,78.30
2022-12-17T14:48:50.476Z,78.60
2022-12-17T14:51:53.746Z,78.83
2022-12-17T14:54:56.594Z,79.12
2022-12-17T14:58:11.692Z,79.00
2022-12-17T15:01:14.772Z,79.21
2022-12-17T15:04:20.985Z,79.76
2022-12-17T15:07:28.612Z,79.58
2022-12-17T15:10:31.625Z,79.78
2022-12-17T15:13:34.379Z,79.73
2022-12-17T15:16:37.636Z,80.14
2022-12-17T15:19:40.546Z,80.15
2022-12-17T15:22:44.208Z,80.18
2022-12-17T15:25:48.457Z,80.23
2022-12-17T15:28:51.748Z,79.97
2022-12-17T15:31:54.728Z,80.25
2022-12-17T15:34:58.010Z,80.73
2022-12-17T15:38:01.598Z,80.44
2022-12-17T15:41:26.319Z,80.30
2022-12-17T15:44:29.515Z,80.35
2022-12-17T15:47:32.908Z,80.46
2022-12-17T15:50:37.891Z,80.60
2022-12-17T15:53:41.283Z,80.71
2022-12-17T15:56:53.779Z,80.87
2022-12-17T15:59:56.997Z,80.77
2022-12-17T16:03:00.822Z,81.12
2022-12-17T16:06:04.591Z,81.32
2022-12-17T16:09:07.526Z,81.54
2022-12-17T16:12:10.717Z,81.93
2022-12-17T16:15:15.089Z,82.46
2022-12-17T16:18:20.410Z,82.20
2022-12-17T16:21:23.478Z,82.41
2022-12-17T16:24:28.078Z,82.80
2022-12-17T16:27:31.050Z,82.56
2022-12-17T16:30:35.422Z,82.92
2022-12-17T16:33:43.520Z,83.00
2022-12-17T16:36:47.100Z,83.11
2022-12-17T16:39:58.289Z,83.17
2022-12-17T16:43:03.424Z,83.27
2022-12-17T16:46:12.104Z,83.43
2022-12-17T16:49:20.282Z,83.51
2022-12-17T16:52:23.506Z,83.59
2022-12-17T16:55:27.667Z,83.59
2022-12-17T16:58:31.251Z,83.90
2022-12-17T17:01:38.315Z,83.85
2022-12-17T17:04:43.069Z,84.00
2022-12-17T17:07:46.258Z,83.99
2022-12-17T17:10:49.063Z,84.21
2022-12-17T17:13:54.489Z,84.39
2022-12-17T17:16:57.217Z,84.12
2022-12-17T17:20:00.934Z,84.21
2022-12-17T17:23:04.858Z,84.38
2022-12-17T17:26:09.768Z,84.26
2022-12-17T17:29:12.944Z,84.16
2022-12-17T17:32:16.050Z,84.44
2022-12-17T17:35:20.540Z,84.46
2022-12-17T17:38:25.612Z,84.84
2022-12-17T17:41:30.262Z,84.91
2022-12-17T17:44:33.530Z,84.92
2022-12-17T17:47:36.443Z,85.11
2022-12-17T17:50:39.884Z,85.47
2022-12-17T17:53:43.004Z,85.43
2022-12-17T17:56:46.236Z,85.30
2022-12-17T17:59:49.182Z,85.18
2022-12-17T18:02:54.891Z,85.01
2022-12-17T18:06:03.020Z,85.35
2022-12-17T18:09:06.458Z,85.58
2022-12-17T18:12:27.960Z,85.56
2022-12-17T18:15:32.450Z,85.42
2022-12-17T18:18:37.546Z,85.43
2022-12-17T18:21:40.817Z,85.70
2022-12-17T18:24:44.301Z,85.59
2022-12-17T18:27:47.844Z,85.68
2022-12-17T18:30:52.071Z,86.13
2022-12-17T18:34:01.162Z,85.85
2022-12-17T18:37:05.769Z,86.03
2022-12-17T18:40:09.944Z,86.16
2022-12-17T18:43:26.259Z,86.13
2022-12-17T18:46:30.048Z,86.16
2022-12-17T18:49:36.345Z,85.99
2022-12-17T18:52:39.644Z,86.04
2022-12-17T18:55:43.682Z,86.02
2022-12-17T18:58:46.954Z,86.16
2022-12-17T19:01:50.481Z,86.28
2022-12-17T19:04:53.658Z,86.62
2022-12-17T19:07:56.910Z,86.55
2022-12-17T19:11:05.541Z,86.47
2022-12-17T19:14:09.725Z,86.78
2022-12-17T19:17:12.591Z,86.85
2022-12-17T19:20:17.577Z,86.72
2022-12-17T19:23:20.474Z,86.81
2022-12-17T19:26:23.963Z,86.98
2022-12-17T19:29:27.186Z,86.87
2022-12-17T19:32:30.392Z,86.85
2022-12-17T19:35:36.836Z,86.71
2022-12-17T19:38:41.146Z,86.88
2022-12-17T19:41:45.064Z,86.86
2022-12-17T19:44:49.123Z,86.86
2022-12-17T19:47:52.749Z,86.97
2022-12-17T19:50:58.694Z,86.96
2022-12-17T19:54:08.078Z,86.87
2022-12-17T19:57:12.085Z,86.84
2022-12-17T20:00:15.618Z,86.70
2022-12-17T20:03:19.221Z,86.80
2022-12-17T20:06:25.953Z,86.75
2022-12-17T20:09:29.405Z,86.49
2022-12-17T20:12:33.811Z,86.47
2022-12-17T20:15:37.420Z,86.56
2022-12-17T20:18:40.519Z,86.48
2022-12-17T20:21:47.983Z,86.38
2022-12-17T20:24:51.303Z,86.20
2022-12-17T20:27:54.734Z,86.31
2022-12-17T20:30:58.362Z,86.40
2022-12-17T20:34:20.112Z,86.52
2022-12-17T20:37:23.713Z,86.44
2022-12-17T20:40:36.955Z,86.81
2022-12-17T20:43:40.474Z,86.90
2022-12-17T20:46:44.723Z,87.03
2022-12-17T20:49:47.753Z,87.09
2022-12-17T21:12:06.297Z,87.07
2022-12-17T21:15:10.170Z,86.84
2022-12-17T21:18:13.381Z,86.76
2022-12-17T21:21:19.641Z,86.50
2022-12-17T21:24:22.401Z,86.50
2022-12-17T21:27:25.573Z,86.36
2022-12-17T21:30:29.314Z,86.20
2022-12-17T21:33:34.014Z,86.44
2022-12-17T21:36:37.586Z,86.23
2022-12-17T21:39:41.166Z,86.18
2022-12-17T21:43:02.245Z,85.87
2022-12-17T21:46:06.202Z,85.71
2022-12-17T21:49:10.116Z,85.45
2022-12-17T21:52:13.460Z,85.47
2022-12-17T21:55:16.240Z,85.41
2022-12-17T21:58:19.391Z,85.73
2022-12-17T22:01:25.583Z,85.95
2022-12-17T22:04:29.183Z,85.99
2022-12-17T22:07:34.518Z,86.22
2022-12-17T22:10:49.320Z,86.14
2022-12-17T22:14:08.927Z,85.96
2022-12-17T22:17:13.159Z,86.11
2022-12-17T22:20:16.707Z,86.10
2022-12-17T22:23:19.734Z,86.31
2022-12-17T22:26:22.903Z,86.26
2022-12-17T22:29:47.757Z,86.26
2022-12-17T22:33:00.365Z,86.58
2022-12-17T22:39:29.547Z,86.42
2022-12-17T22:43:11.651Z,86.14
2022-12-17T22:44:43.761Z,85.85
2022-12-17T22:46:27.179Z,86.22
2022-12-17T22:49:30.177Z,86.13
2022-12-17T22:52:32.908Z,86.34
2022-12-17T22:55:37.332Z,86.38
2022-12-17T22:58:40.679Z,86.13
2022-12-17T23:01:44.141Z,86.30
2022-12-17T23:04:46.973Z,86.12
2022-12-17T23:07:50.971Z,86.52
2022-12-17T23:10:53.711Z,86.69
2022-12-17T23:13:57.135Z,86.96
2022-12-17T23:16:59.847Z,87.03
2022-12-17T23:20:03.103Z,87.12
2022-12-17T23:23:05.812Z,87.24
2022-12-17T23:26:16.268Z,87.43
2022-12-17T23:29:19.767Z,87.50
2022-12-17T23:32:23.095Z,87.86
2022-12-17T23:35:25.789Z,86.83
2022-12-17T23:38:29.535Z,86.25
2022-12-17T23:41:33.596Z,86.22
2022-12-17T23:44:36.629Z,87.26
2022-12-17T23:47:40.452Z,87.47
2022-12-17T23:50:43.386Z,87.29
2022-12-17T23:53:49.968Z,88.17
2022-12-17T23:56:53.039Z,88.37
2022-12-17T23:59:55.759Z,88.79
